Time;durP1;ratioP1;P1;durP2;ratioP2;P2;SDS_P1;SDS_P2;PMS_P1;PMS_P2;Temp;Humidity;BMP_temperature;BMP_pressure;BME280_temperature;BME280_humidity;BME280_pressure;Samples;Min_cycle;Max_cycle;Signal;HPM_P1;HPM_P2
2021/08/26 00:00:52;;;;;;;8.85;5.82;;;;;;;;;;5074883;28;20403;-71
2021/08/26 00:06:04;;;;;;;9.15;6.38;;;;;;;;;;5074101;28;20285;-71
2021/08/26 00:08:32;;;;;;;11.60;6.55;;;;;;;;;;5073541;28;20391;-71
2021/08/26 00:10:58;;;;;;;8.63;6.53;;;;;;;;;;5074007;28;20021;-72
2021/08/26 00:13:24;;;;;;;8.55;5.50;;;;;;;;;;5073512;28;20024;-71
2021/08/26 00:15:53;;;;;;;9.82;6.05;;;;;;;;;;5073414;28;20038;-72
2021/08/26 00:18:19;;;;;;;11.32;6.53;;;;;;;;;;5073651;28;20016;-73
2021/08/26 00:20:51;;;;;;;7.40;6.32;;;;;;;;;;5073908;28;20028;-70
2021/08/26 00:23:17;;;;;;;10.43;6.07;;;;;;;;;;5074211;28;20024;-71
2021/08/26 00:25:43;;;;;;;9.77;6.78;;;;;;;;;;5073641;28;20050;-71
2021/08/26 00:28:09;;;;;;;9.00;6.38;;;;;;;;;;5073289;28;20021;-72
2021/08/26 00:30:35;;;;;;;8.98;6.28;;;;;;;;;;5073256;28;20028;-71
2021/08/26 00:33:01;;;;;;;8.57;6.50;;;;;;;;;;5073410;28;20379;-72
2021/08/26 00:35:27;;;;;;;11.07;6.72;;;;;;;;;;5073430;28;20029;-71
2021/08/26 00:37:54;;;;;;;8.68;6.60;;;;;;;;;;5073040;28;20422;-73
2021/08/26 00:40:20;;;;;;;8.57;6.15;;;;;;;;;;5073289;28;20047;-72
2021/08/26 00:42:46;;;;;;;7.72;5.93;;;;;;;;;;5073059;28;20028;-71
2021/08/26 00:45:12;;;;;;;8.95;6.80;;;;;;;;;;5072927;28;20032;-71
2021/08/26 00:47:38;;;;;;;9.98;5.65;;;;;;;;;;5073002;28;20074;-72
2021/08/26 00:50:05;;;;;;;8.73;6.05;;;;;;;;;;5072554;28;20560;-72
2021/08/26 00:52:31;;;;;;;11.40;7.82;;;;;;;;;;5072864;28;20020;-72
2021/08/26 00:54:58;;;;;;;11.10;6.72;;;;;;;;;;5072847;28;20029;-72
2021/08/26 00:57:24;;;;;;;10.38;6.43;;;;;;;;;;5073388;28;20047;-71
2021/08/26 00:59:51;;;;;;;9.70;6.90;;;;;;;;;;5073177;28;20395;-71
2021/08/26 01:02:22;;;;;;;11.45;7.35;;;;;;;;;;5072888;28;20025;-72
2021/08/26 01:04:52;;;;;;;10.77;6.97;;;;;;;;;;5072512;28;20064;-72
2021/08/26 01:07:33;;;;;;;11.10;7.32;;;;;;;;;;5072577;28;20041;-72
2021/08/26 01:10:02;;;;;;;10.10;7.20;;;;;;;;;;5072760;28;20099;-71
2021/08/26 01:12:30;;;;;;;11.07;7.78;;;;;;;;;;5071234;28;20059;-72
2021/08/26 01:14:56;;;;;;;11.88;7.88;;;;;;;;;;5072554;28;20032;-72
2021/08/26 01:17:25;;;;;;;11.48;7.57;;;;;;;;;;5072801;28;20029;-71
2021/08/26 01:19:55;;;;;;;11.95;7.50;;;;;;;;;;5072744;28;20025;-72
2021/08/26 01:22:22;;;;;;;13.65;8.95;;;;;;;;;;5072657;28;20035;-71
2021/08/26 01:24:58;;;;;;;12.85;9.10;;;;;;;;;;5071216;28;20028;-73
2021/08/26 01:27:36;;;;;;;13.60;8.52;;;;;;;;;;5072632;28;20100;-72
2021/08/26 01:30:03;;;;;;;14.98;8.82;;;;;;;;;;5072710;28;20020;-71
2021/08/26 01:32:29;;;;;;;13.48;8.40;;;;;;;;;;5073524;28;20016;-72
2021/08/26 01:34:55;;;;;;;13.55;8.82;;;;;;;;;;5072431;28;20031;-71
2021/08/26 01:37:25;;;;;;;12.38;9.38;;;;;;;;;;5072489;28;20489;-71
2021/08/26 01:39:52;;;;;;;12.88;8.65;;;;;;;;;;5072425;28;20450;-71
2021/08/26 01:42:22;;;;;;;14.65;9.02;;;;;;;;;;5072640;28;20020;-71
2021/08/26 01:44:48;;;;;;;18.13;9.95;;;;;;;;;;5072297;28;20028;-71
2021/08/26 01:47:15;;;;;;;17.80;10.05;;;;;;;;;;5072313;28;20540;-72
2021/08/26 01:49:43;;;;;;;12.43;8.65;;;;;;;;;;5072330;28;20383;-72
2021/08/26 01:52:09;;;;;;;12.30;8.13;;;;;;;;;;5072418;28;20074;-71
2021/08/26 01:54:35;;;;;;;12.70;7.53;;;;;;;;;;5072259;28;20025;-70
2021/08/26 01:57:01;;;;;;;10.82;7.68;;;;;;;;;;5071127;28;20384;-72
2021/08/26 01:59:28;;;;;;;12.20;7.75;;;;;;;;;;5072189;28;20100;-71
2021/08/26 02:01:54;;;;;;;11.43;8.43;;;;;;;;;;5071624;28;20098;-71
2021/08/26 02:04:20;;;;;;;13.02;8.57;;;;;;;;;;5076077;28;20032;-71
2021/08/26 02:06:46;;;;;;;16.45;9.95;;;;;;;;;;5076436;28;20029;-72
2021/08/26 02:09:12;;;;;;;14.40;9.73;;;;;;;;;;5076379;28;20090;-72
2021/08/26 02:11:38;;;;;;;15.18;8.82;;;;;;;;;;5076075;28;20024;-72
2021/08/26 02:14:04;;;;;;;12.50;8.55;;;;;;;;;;5076462;28;20074;-72
2021/08/26 02:16:30;;;;;;;14.88;9.20;;;;;;;;;;5076579;28;20133;-72
2021/08/26 02:18:56;;;;;;;15.35;9.43;;;;;;;;;;5076146;28;20024;-72
2021/08/26 02:21:22;;;;;;;12.63;8.90;;;;;;;;;;5076129;28;20466;-71
2021/08/26 02:23:52;;;;;;;11.52;8.05;;;;;;;;;;5076950;28;20099;-73
2021/08/26 02:26:19;;;;;;;10.43;7.50;;;;;;;;;;5075828;28;20410;-73
2021/08/26 02:28:45;;;;;;;14.77;8.48;;;;;;;;;;5075869;28;20360;-73
2021/08/26 02:31:11;;;;;;;12.93;7.68;;;;;;;;;;5075571;28;20017;-73
2021/08/26 02:33:37;;;;;;;11.30;7.30;;;;;;;;;;5076327;28;20027;-73
2021/08/26 02:36:03;;;;;;;10.98;7.53;;;;;;;;;;5076906;28;20166;-72
2021/08/26 02:38:29;;;;;;;9.40;6.25;;;;;;;;;;5075751;28;20032;-71
2021/08/26 02:40:55;;;;;;;9.77;6.22;;;;;;;;;;5075804;28;20029;-71
2021/08/26 02:43:21;;;;;;;9.20;5.55;;;;;;;;;;5076472;28;20032;-72
2021/08/26 02:45:47;;;;;;;8.20;5.78;;;;;;;;;;5078818;28;20028;-75
2021/08/26 02:48:13;;;;;;;8.50;6.20;;;;;;;;;;5077860;28;20067;-72
2021/08/26 02:50:39;;;;;;;8.40;6.32;;;;;;;;;;5075765;28;20039;-73
2021/08/26 02:53:05;;;;;;;7.75;5.55;;;;;;;;;;5075614;28;20021;-73
2021/08/26 02:55:31;;;;;;;10.20;7.00;;;;;;;;;;5075385;28;20090;-72
2021/08/26 02:57:57;;;;;;;8.55;6.32;;;;;;;;;;5075672;28;20100;-73
2021/08/26 03:00:23;;;;;;;10.05;6.28;;;;;;;;;;5075061;28;20027;-73
2021/08/26 03:02:50;;;;;;;10.98;7.25;;;;;;;;;;5075511;28;20063;-73
2021/08/26 03:05:16;;;;;;;10.15;6.63;;;;;;;;;;5074827;28;20043;-71
2021/08/26 03:07:42;;;;;;;9.27;6.80;;;;;;;;;;5074912;28;20344;-71
2021/08/26 03:10:08;;;;;;;9.40;7.03;;;;;;;;;;5074930;28;20360;-73
2021/08/26 03:12:34;;;;;;;9.43;7.05;;;;;;;;;;5074897;28;20051;-73
2021/08/26 03:15:00;;;;;;;10.68;7.03;;;;;;;;;;5073708;28;20029;-73
2021/08/26 03:17:26;;;;;;;10.35;6.25;;;;;;;;;;5074696;28;20561;-72
2021/08/26 03:19:53;;;;;;;9.75;6.80;;;;;;;;;;5074632;28;20391;-71
2021/08/26 03:22:19;;;;;;;11.70;6.88;;;;;;;;;;5074541;28;20024;-71
2021/08/26 03:24:45;;;;;;;12.20;7.43;;;;;;;;;;5074499;28;20492;-72
2021/08/26 03:27:11;;;;;;;13.27;8.38;;;;;;;;;;5074604;28;20048;-71
2021/08/26 03:29:37;;;;;;;12.93;7.80;;;;;;;;;;5074827;28;20031;-73
2021/08/26 03:32:03;;;;;;;11.65;9.00;;;;;;;;;;5074436;28;20032;-71
2021/08/26 03:34:35;;;;;;;15.80;10.20;;;;;;;;;;5074444;28;20029;-71
2021/08/26 03:37:01;;;;;;;13.70;9.02;;;;;;;;;;5074346;28;20021;-71
2021/08/26 03:39:27;;;;;;;14.43;9.23;;;;;;;;;;5074523;28;20024;-71
2021/08/26 03:41:53;;;;;;;16.70;9.95;;;;;;;;;;5074840;28;20027;-71
2021/08/26 03:44:19;;;;;;;15.27;10.57;;;;;;;;;;5074200;28;20029;-71
2021/08/26 03:46:45;;;;;;;13.35;8.93;;;;;;;;;;5074349;28;20060;-72
2021/08/26 03:49:11;;;;;;;14.15;9.20;;;;;;;;;;5073957;28;20024;-71
2021/08/26 03:51:37;;;;;;;16.73;9.98;;;;;;;;;;5074332;28;20457;-73
2021/08/26 03:54:03;;;;;;;15.95;9.95;;;;;;;;;;5073955;28;20029;-73
2021/08/26 03:56:29;;;;;;;16.92;10.00;;;;;;;;;;5074238;28;20051;-70
2021/08/26 03:58:56;;;;;;;16.02;11.30;;;;;;;;;;5072587;28;20030;-71
2021/08/26 04:01:22;;;;;;;14.60;9.43;;;;;;;;;;5073840;28;20044;-72
2021/08/26 04:03:48;;;;;;;16.70;10.80;;;;;;;;;;5073773;28;20043;-72
2021/08/26 04:06:14;;;;;;;15.98;10.10;;;;;;;;;;5073915;28;20099;-72
2021/08/26 04:08:40;;;;;;;16.90;10.27;;;;;;;;;;5073665;28;20045;-71
2021/08/26 04:11:06;;;;;;;15.27;9.70;;;;;;;;;;5074207;28;20104;-72
2021/08/26 04:13:32;;;;;;;16.02;9.90;;;;;;;;;;5073835;28;20086;-72
2021/08/26 04:15:59;;;;;;;15.15;10.70;;;;;;;;;;5073651;28;20112;-73
2021/08/26 04:18:25;;;;;;;14.40;10.45;;;;;;;;;;5073735;28;20421;-71
2021/08/26 04:20:51;;;;;;;13.27;9.35;;;;;;;;;;5073389;28;20100;-71
2021/08/26 04:23:17;;;;;;;13.15;9.85;;;;;;;;;;5073329;28;20027;-72
2021/08/26 04:25:43;;;;;;;14.50;9.98;;;;;;;;;;5073049;28;20035;-71
2021/08/26 04:28:09;;;;;;;17.33;11.18;;;;;;;;;;5073785;28;20025;-71
2021/08/26 04:30:35;;;;;;;14.70;9.85;;;;;;;;;;5073519;28;20027;-71
2021/08/26 04:33:02;;;;;;;16.58;9.88;;;;;;;;;;5074330;28;20027;-72
2021/08/26 04:35:28;;;;;;;16.30;10.15;;;;;;;;;;5073131;28;20028;-73
2021/08/26 04:37:54;;;;;;;14.68;9.88;;;;;;;;;;5073027;28;20229;-72
2021/08/26 04:40:20;;;;;;;17.58;10.60;;;;;;;;;;5072954;28;20033;-73
2021/08/26 04:42:46;;;;;;;16.77;10.70;;;;;;;;;;5073916;28;20486;-73
2021/08/26 04:45:12;;;;;;;16.63;10.85;;;;;;;;;;5072851;28;20032;-74
2021/08/26 04:47:38;;;;;;;17.08;11.90;;;;;;;;;;5075165;28;20017;-70
2021/08/26 04:50:05;;;;;;;15.88;11.40;;;;;;;;;;5071680;28;20020;-71
2021/08/26 04:52:31;;;;;;;13.05;9.55;;;;;;;;;;5073144;28;20017;-71
2021/08/26 04:54:57;;;;;;;11.85;8.77;;;;;;;;;;5073291;28;20029;-72
2021/08/26 04:57:23;;;;;;;12.18;9.13;;;;;;;;;;5073299;28;20040;-73
2021/08/26 04:59:49;;;;;;;11.60;8.52;;;;;;;;;;5073510;28;20028;-72
2021/08/26 05:02:15;;;;;;;11.38;8.27;;;;;;;;;;5073272;28;20075;-71
2021/08/26 05:04:41;;;;;;;12.88;9.38;;;;;;;;;;5071394;28;20119;-71
2021/08/26 05:07:07;;;;;;;13.13;9.73;;;;;;;;;;5072426;28;20047;-72
2021/08/26 05:09:33;;;;;;;14.95;10.38;;;;;;;;;;5072681;28;20028;-71
2021/08/26 05:12:03;;;;;;;13.32;8.32;;;;;;;;;;5073020;28;20494;-71
2021/08/26 05:14:31;;;;;;;13.70;9.38;;;;;;;;;;5074780;28;20020;-71
2021/08/26 05:16:58;;;;;;;12.85;9.48;;;;;;;;;;5072930;28;20024;-73
2021/08/26 05:19:24;;;;;;;12.57;8.57;;;;;;;;;;5072607;28;20069;-71
2021/08/26 05:21:50;;;;;;;10.93;8.55;;;;;;;;;;5072997;28;20078;-72
2021/08/26 05:24:16;;;;;;;14.25;9.55;;;;;;;;;;5072756;28;20024;-71
2021/08/26 05:26:42;;;;;;;15.57;11.02;;;;;;;;;;5072587;28;20029;-72
2021/08/26 05:29:08;;;;;;;14.63;9.50;;;;;;;;;;5071672;28;20173;-71
2021/08/26 05:31:34;;;;;;;14.13;9.65;;;;;;;;;;5072835;28;20029;-72
2021/08/26 05:34:00;;;;;;;14.48;9.80;;;;;;;;;;5072661;28;20021;-71
2021/08/26 05:36:26;;;;;;;12.15;8.82;;;;;;;;;;5071455;28;20021;-71
2021/08/26 05:38:53;;;;;;;13.85;9.80;;;;;;;;;;5076574;28;20035;-72
2021/08/26 05:41:19;;;;;;;13.75;8.93;;;;;;;;;;5077327;28;20028;-72
2021/08/26 05:43:45;;;;;;;11.90;8.68;;;;;;;;;;5075435;28;20058;-71
2021/08/26 05:46:11;;;;;;;12.82;8.60;;;;;;;;;;5076734;28;20550;-71
2021/08/26 05:48:37;;;;;;;11.52;8.55;;;;;;;;;;5077085;28;20020;-71
2021/08/26 05:51:03;;;;;;;11.60;9.00;;;;;;;;;;5076399;28;20032;-73
2021/08/26 05:53:30;;;;;;;13.13;9.15;;;;;;;;;;5076577;28;20020;-71
2021/08/26 05:55:56;;;;;;;12.23;8.70;;;;;;;;;;5078799;28;20024;-71
2021/08/26 05:58:22;;;;;;;12.77;9.38;;;;;;;;;;5078118;28;20051;-70
2021/08/26 06:00:49;;;;;;;11.75;8.30;;;;;;;;;;5078523;28;20035;-71
2021/08/26 06:03:16;;;;;;;11.77;8.18;;;;;;;;;;5078539;28;20029;-70
2021/08/26 06:05:42;;;;;;;11.32;8.45;;;;;;;;;;5076902;28;20021;-71
2021/08/26 06:08:08;;;;;;;12.23;9.35;;;;;;;;;;5076130;28;20054;-71
2021/08/26 06:10:36;;;;;;;12.23;9.07;;;;;;;;;;5076790;28;20027;-72
2021/08/26 06:13:03;;;;;;;13.43;8.38;;;;;;;;;;5076232;28;20025;-71
2021/08/26 06:15:29;;;;;;;13.63;9.10;;;;;;;;;;5076045;28;20025;-70
2021/08/26 06:17:55;;;;;;;11.80;8.25;;;;;;;;;;5077507;28;20101;-73
2021/08/26 06:20:22;;;;;;;10.60;7.63;;;;;;;;;;5077238;28;20016;-70
2021/08/26 06:22:48;;;;;;;11.77;8.05;;;;;;;;;;5075945;28;20063;-70
2021/08/26 06:25:14;;;;;;;12.45;7.97;;;;;;;;;;5075774;28;20029;-70
2021/08/26 06:27:41;;;;;;;12.93;8.43;;;;;;;;;;5074790;28;20020;-73
2021/08/26 06:30:08;;;;;;;13.02;8.40;;;;;;;;;;5076377;28;20020;-71
2021/08/26 06:32:34;;;;;;;12.20;8.65;;;;;;;;;;5076603;28;20021;-69
2021/08/26 06:35:02;;;;;;;14.48;8.18;;;;;;;;;;5074304;28;20108;-73
2021/08/26 06:37:29;;;;;;;10.93;7.60;;;;;;;;;;5075704;28;20062;-73
2021/08/26 06:39:55;;;;;;;13.07;7.82;;;;;;;;;;5076858;28;20086;-72
2021/08/26 06:42:21;;;;;;;11.48;7.00;;;;;;;;;;5077495;28;20074;-72
2021/08/26 06:44:47;;;;;;;10.07;7.93;;;;;;;;;;5075378;28;20464;-73
2021/08/26 06:47:13;;;;;;;8.68;7.40;;;;;;;;;;5075835;28;20434;-73
2021/08/26 06:49:40;;;;;;;9.43;7.20;;;;;;;;;;5075403;28;20048;-72
2021/08/26 06:52:06;;;;;;;10.20;7.57;;;;;;;;;;5075483;28;20498;-73
2021/08/26 06:54:32;;;;;;;10.73;7.70;;;;;;;;;;5075921;28;20388;-71
2021/08/26 06:56:58;;;;;;;10.85;7.45;;;;;;;;;;5075073;28;20028;-73
2021/08/26 06:59:24;;;;;;;10.75;8.52;;;;;;;;;;5075545;28;20361;-73
2021/08/26 07:01:51;;;;;;;10.98;7.90;;;;;;;;;;5076497;28;20070;-73
2021/08/26 07:04:17;;;;;;;11.48;8.30;;;;;;;;;;5074531;28;20035;-71
2021/08/26 07:06:43;;;;;;;10.77;7.70;;;;;;;;;;5075109;28;20103;-72
2021/08/26 07:09:09;;;;;;;9.23;7.75;;;;;;;;;;5075351;28;20407;-71
2021/08/26 07:11:37;;;;;;;10.75;7.68;;;;;;;;;;5075413;28;20403;-71
2021/08/26 07:14:03;;;;;;;10.90;7.97;;;;;;;;;;5075435;28;20459;-71
2021/08/26 07:16:29;;;;;;;10.65;8.43;;;;;;;;;;5075443;28;20024;-73
2021/08/26 07:18:55;;;;;;;10.75;8.02;;;;;;;;;;5074956;28;20475;-73
2021/08/26 07:21:21;;;;;;;11.35;7.70;;;;;;;;;;5075015;28;20020;-73
2021/08/26 07:23:47;;;;;;;12.43;8.48;;;;;;;;;;5075282;28;20479;-74
2021/08/26 07:26:13;;;;;;;10.48;8.23;;;;;;;;;;5076352;28;20434;-73
2021/08/26 07:28:39;;;;;;;13.60;8.98;;;;;;;;;;5074822;28;20028;-73
2021/08/26 07:31:05;;;;;;;9.75;8.20;;;;;;;;;;5074703;28;20167;-70
2021/08/26 07:33:31;;;;;;;14.45;7.35;;;;;;;;;;5074784;28;20021;-72
2021/08/26 07:35:59;;;;;;;19.35;8.30;;;;;;;;;;5075050;28;20047;-72
2021/08/26 07:38:25;;;;;;;13.70;7.90;;;;;;;;;;5075517;28;20032;-72
2021/08/26 07:40:51;;;;;;;10.90;7.93;;;;;;;;;;5074517;28;20082;-71
2021/08/26 07:43:17;;;;;;;11.77;8.15;;;;;;;;;;5074462;28;20036;-71
2021/08/26 07:45:44;;;;;;;13.80;8.63;;;;;;;;;;5075114;28;20028;-70
2021/08/26 07:48:10;;;;;;;11.00;7.60;;;;;;;;;;5074827;28;20017;-72
2021/08/26 07:50:36;;;;;;;14.43;8.07;;;;;;;;;;5074131;28;20016;-71
2021/08/26 07:53:02;;;;;;;15.23;8.95;;;;;;;;;;5074255;28;20095;-72
2021/08/26 07:55:28;;;;;;;12.50;8.82;;;;;;;;;;5074847;28;20055;-71
2021/08/26 07:57:54;;;;;;;17.88;8.55;;;;;;;;;;5074624;28;20389;-72
2021/08/26 08:00:20;;;;;;;14.38;8.18;;;;;;;;;;5073692;28;20471;-71
2021/08/26 08:02:47;;;;;;;13.32;9.02;;;;;;;;;;5073965;28;20532;-73
2021/08/26 08:05:13;;;;;;;15.10;8.45;;;;;;;;;;5073596;28;20029;-72
2021/08/26 08:07:44;;;;;;;12.50;9.07;;;;;;;;;;5074149;28;20076;-72
2021/08/26 08:10:10;;;;;;;12.68;8.40;;;;;;;;;;5075105;28;20033;-74
2021/08/26 08:12:36;;;;;;;12.57;9.07;;;;;;;;;;5074316;28;20383;-72
2021/08/26 08:15:03;;;;;;;12.32;8.43;;;;;;;;;;5073964;28;20069;-72
2021/08/26 08:17:29;;;;;;;14.27;8.43;;;;;;;;;;5074520;28;20145;-69
2021/08/26 08:19:58;;;;;;;12.68;8.73;;;;;;;;;;5074767;28;20024;-71
2021/08/26 08:22:24;;;;;;;12.93;7.70;;;;;;;;;;5073958;28;20082;-69
2021/08/26 08:24:50;;;;;;;11.82;7.85;;;;;;;;;;5073649;28;20025;-72
2021/08/26 08:27:16;;;;;;;10.98;8.18;;;;;;;;;;5073523;28;20066;-71
2021/08/26 08:29:42;;;;;;;12.63;8.23;;;;;;;;;;5074107;28;20028;-74
2021/08/26 08:32:08;;;;;;;12.45;8.38;;;;;;;;;;5073149;28;20024;-72
2021/08/26 08:34:34;;;;;;;10.80;8.02;;;;;;;;;;5073564;28;20048;-72
2021/08/26 08:37:02;;;;;;;12.38;8.45;;;;;;;;;;5073559;28;20047;-71
2021/08/26 08:39:28;;;;;;;15.15;8.10;;;;;;;;;;5075187;28;20021;-73
2021/08/26 08:41:54;;;;;;;11.55;8.10;;;;;;;;;;5074866;28;20033;-71
2021/08/26 08:44:21;;;;;;;10.63;7.75;;;;;;;;;;5073405;28;20025;-71
2021/08/26 08:46:48;;;;;;;12.25;8.80;;;;;;;;;;5072981;28;20013;-72
2021/08/26 08:49:15;;;;;;;11.50;7.28;;;;;;;;;;5073658;28;20021;-72
2021/08/26 08:51:41;;;;;;;9.82;7.07;;;;;;;;;;5073958;28;20482;-72
2021/08/26 08:54:07;;;;;;;12.15;7.50;;;;;;;;;;5073898;28;20024;-72
2021/08/26 08:56:33;;;;;;;15.05;8.18;;;;;;;;;;5072970;28;20028;-71
2021/08/26 08:59:00;;;;;;;9.48;6.65;;;;;;;;;;5074236;28;20027;-72
2021/08/26 09:01:26;;;;;;;9.57;7.30;;;;;;;;;;5075566;28;20078;-73
2021/08/26 09:03:52;;;;;;;10.15;7.15;;;;;;;;;;5074511;28;20025;-73
2021/08/26 09:06:18;;;;;;;11.05;7.65;;;;;;;;;;5073579;28;20027;-72
2021/08/26 09:09:00;;;;;;;10.73;7.40;;;;;;;;;;5073769;28;20072;-71
2021/08/26 09:11:28;;;;;;;11.27;6.82;;;;;;;;;;5073118;28;20024;-71
2021/08/26 09:13:54;;;;;;;11.07;7.72;;;;;;;;;;5072169;28;20028;-71
2021/08/26 09:16:35;;;;;;;10.05;6.97;;;;;;;;;;5072877;28;20028;-72
2021/08/26 09:19:19;;;;;;;9.68;7.03;;;;;;;;;;5073189;28;20020;-73
2021/08/26 09:21:45;;;;;;;8.68;6.25;;;;;;;;;;5073911;28;20020;-74
2021/08/26 09:24:12;;;;;;;9.73;6.38;;;;;;;;;;5073284;28;20078;-73
2021/08/26 09:26:40;;;;;;;8.55;5.93;;;;;;;;;;5072785;28;20020;-71
2021/08/26 09:29:08;;;;;;;9.82;6.53;;;;;;;;;;5072670;28;20471;-71
2021/08/26 09:31:34;;;;;;;10.27;6.10;;;;;;;;;;5073437;28;20025;-71
2021/08/26 09:34:01;;;;;;;7.97;6.28;;;;;;;;;;5074178;28;20017;-71
2021/08/26 09:36:31;;;;;;;7.63;5.63;;;;;;;;;;5072706;28;20029;-72
2021/08/26 09:39:14;;;;;;;10.43;6.30;;;;;;;;;;5070898;28;20021;-73
2021/08/26 09:41:46;;;;;;;8.05;5.43;;;;;;;;;;5073009;28;20163;-71
2021/08/26 09:44:12;;;;;;;7.43;5.55;;;;;;;;;;5072151;28;20033;-72
2021/08/26 09:46:38;;;;;;;8.85;5.20;;;;;;;;;;5072303;28;20537;-72
2021/08/26 09:49:06;;;;;;;11.00;6.00;;;;;;;;;;5072232;28;20044;-71
2021/08/26 09:51:32;;;;;;;6.82;5.20;;;;;;;;;;5072359;28;20035;-72
2021/08/26 09:53:59;;;;;;;6.65;5.60;;;;;;;;;;5073483;28;20411;-71
2021/08/26 09:56:25;;;;;;;8.20;5.28;;;;;;;;;;5071048;28;20442;-71
2021/08/26 09:58:54;;;;;;;6.85;5.82;;;;;;;;;;5072150;28;20099;-72
2021/08/26 10:01:23;;;;;;;11.57;5.20;;;;;;;;;;5072829;28;20024;-74
2021/08/26 10:03:52;;;;;;;8.38;5.88;;;;;;;;;;5073588;28;20020;-73
2021/08/26 10:06:19;;;;;;;7.47;5.70;;;;;;;;;;5072972;28;20105;-71
2021/08/26 10:08:47;;;;;;;7.88;5.53;;;;;;;;;;5071944;28;20044;-71
2021/08/26 10:11:15;;;;;;;10.75;5.68;;;;;;;;;;5072190;28;20403;-73
2021/08/26 10:13:41;;;;;;;7.85;5.50;;;;;;;;;;5073129;28;20016;-72
2021/08/26 10:16:08;;;;;;;7.00;5.25;;;;;;;;;;5072084;28;20028;-72
2021/08/26 10:18:35;;;;;;;10.88;5.35;;;;;;;;;;5072426;28;20032;-72
2021/08/26 10:21:03;;;;;;;9.45;5.25;;;;;;;;;;5073227;28;20031;-71
2021/08/26 10:23:30;;;;;;;9.60;5.80;;;;;;;;;;5075283;28;20029;-70
2021/08/26 10:25:57;;;;;;;7.43;5.50;;;;;;;;;;5074932;28;20031;-72
2021/08/26 10:28:24;;;;;;;10.10;4.97;;;;;;;;;;5075689;28;20027;-72
2021/08/26 10:30:50;;;;;;;9.20;5.72;;;;;;;;;;5075679;28;20090;-72
2021/08/26 10:33:22;;;;;;;7.50;5.25;;;;;;;;;;5077088;28;20025;-72
2021/08/26 10:35:51;;;;;;;8.05;5.78;;;;;;;;;;5075584;28;20056;-71
2021/08/26 10:38:28;;;;;;;8.45;5.57;;;;;;;;;;5075407;28;20020;-73
2021/08/26 10:40:55;;;;;;;7.03;5.63;;;;;;;;;;5075400;28;20029;-71
2021/08/26 10:43:36;;;;;;;9.23;5.38;;;;;;;;;;5076416;28;20028;-71
2021/08/26 10:46:06;;;;;;;7.45;5.20;;;;;;;;;;5074678;28;20033;-71
2021/08/26 10:48:32;;;;;;;8.75;4.90;;;;;;;;;;5075139;28;20059;-71
2021/08/26 10:51:03;;;;;;;6.70;4.70;;;;;;;;;;5075303;28;20104;-73
2021/08/26 10:53:31;;;;;;;4.75;4.18;;;;;;;;;;5075281;28;20017;-72
2021/08/26 10:55:59;;;;;;;6.00;4.18;;;;;;;;;;5075727;28;20032;-71
2021/08/26 10:58:26;;;;;;;5.72;3.72;;;;;;;;;;5074863;28;20086;-72
2021/08/26 11:00:55;;;;;;;8.13;4.78;;;;;;;;;;5074695;28;20425;-71
2021/08/26 11:03:45;;;;;;;6.57;4.78;;;;;;;;;;5075845;28;20039;-72
2021/08/26 11:06:17;;;;;;;6.90;4.93;;;;;;;;;;5075471;28;20028;-71
2021/08/26 11:08:52;;;;;;;7.70;4.72;;;;;;;;;;5075173;28;20095;-71
2021/08/26 11:11:18;;;;;;;;;;;;;;;;;;5075275;28;20035;-71
2021/08/26 11:13:44;;;;;;;8.75;4.70;;;;;;;;;;5075749;28;19953;-71
2021/08/26 11:16:30;;;;;;;7.47;4.88;;;;;;;;;;5074632;28;20387;-72
2021/08/26 11:18:57;;;;;;;5.63;4.00;;;;;;;;;;5070787;28;20033;-72
2021/08/26 11:21:42;;;;;;;10.60;4.97;;;;;;;;;;5074461;28;20025;-71
2021/08/26 11:24:09;;;;;;;7.07;4.55;;;;;;;;;;5075186;28;20387;-73
2021/08/26 11:26:47;;;;;;;7.75;4.80;;;;;;;;;;5074526;28;20029;-73
2021/08/26 11:29:16;;;;;;;5.55;4.85;;;;;;;;;;5074466;28;20063;-73
2021/08/26 11:31:43;;;;;;;5.90;4.30;;;;;;;;;;5074390;28;20549;-72
2021/08/26 11:34:09;;;;;;;6.85;4.38;;;;;;;;;;5074557;28;20032;-72
2021/08/26 11:36:35;;;;;;;8.02;4.68;;;;;;;;;;5074089;28;20024;-71
2021/08/26 11:39:02;;;;;;;5.60;4.00;;;;;;;;;;5074473;28;20029;-73
2021/08/26 11:41:28;;;;;;;8.15;4.32;;;;;;;;;;5072816;28;20024;-74
2021/08/26 11:43:54;;;;;;;6.13;4.15;;;;;;;;;;5074758;28;20039;-70
2021/08/26 11:46:21;;;;;;;7.22;4.28;;;;;;;;;;5073489;28;20409;-72
2021/08/26 11:48:48;;;;;;;5.82;4.47;;;;;;;;;;5074068;28;20017;-74
2021/08/26 11:51:21;;;;;;;8.10;4.38;;;;;;;;;;5073820;28;20025;-72
2021/08/26 11:53:47;;;;;;;5.65;4.13;;;;;;;;;;5074040;28;20035;-74
2021/08/26 11:56:13;;;;;;;6.47;4.32;;;;;;;;;;5073973;28;20028;-71
2021/08/26 11:58:39;;;;;;;4.30;3.88;;;;;;;;;;5073777;28;20024;-72
2021/08/26 12:01:06;;;;;;;5.25;3.90;;;;;;;;;;5073845;28;20056;-71
2021/08/26 12:03:32;;;;;;;5.60;4.10;;;;;;;;;;5073770;28;20487;-72
2021/08/26 12:05:59;;;;;;;5.05;4.55;;;;;;;;;;5073659;28;20395;-73
2021/08/26 12:08:25;;;;;;;7.30;3.67;;;;;;;;;;5073675;28;20045;-73
2021/08/26 12:10:53;;;;;;;4.75;4.25;;;;;;;;;;5074108;28;20067;-73
2021/08/26 12:13:21;;;;;;;5.75;3.90;;;;;;;;;;5073995;28;20556;-72
2021/08/26 12:15:53;;;;;;;6.72;4.28;;;;;;;;;;5074563;28;20036;-71
2021/08/26 12:18:22;;;;;;;5.78;4.25;;;;;;;;;;5077573;28;20052;-73
2021/08/26 12:20:50;;;;;;;5.32;4.15;;;;;;;;;;5078551;28;20028;-73
2021/08/26 12:23:17;;;;;;;7.78;4.30;;;;;;;;;;5074764;28;20387;-73
2021/08/26 12:25:44;;;;;;;7.47;4.20;;;;;;;;;;5074489;28;20546;-73
2021/08/26 12:28:10;;;;;;;8.85;5.15;;;;;;;;;;5074832;28;20024;-72
2021/08/26 12:30:41;;;;;;;9.75;6.10;;;;;;;;;;5074146;28;20432;-72
2021/08/26 12:33:15;;;;;;;10.23;4.88;;;;;;;;;;5073389;28;20501;-71
2021/08/26 12:35:41;;;;;;;7.05;5.30;;;;;;;;;;5073488;28;20035;-72
2021/08/26 12:38:07;;;;;;;7.35;5.63;;;;;;;;;;5074948;28;20051;-70
2021/08/26 12:40:53;;;;;;;7.20;5.28;;;;;;;;;;5074685;28;20028;-70
2021/08/26 12:43:20;;;;;;;9.27;5.60;;;;;;;;;;5073351;28;20367;-73
2021/08/26 12:45:46;;;;;;;7.20;5.93;;;;;;;;;;5073086;28;20032;-72
2021/08/26 12:48:29;;;;;;;6.88;5.05;;;;;;;;;;5073304;28;20406;-73
2021/08/26 12:51:07;;;;;;;5.60;5.00;;;;;;;;;;5072898;28;20024;-72
2021/08/26 12:53:33;;;;;;;9.77;5.70;;;;;;;;;;5072999;28;20510;-70
2021/08/26 12:56:00;;;;;;;7.82;5.20;;;;;;;;;;5073015;28;20025;-72
2021/08/26 12:58:26;;;;;;;7.93;5.28;;;;;;;;;;5073004;28;20457;-73
2021/08/26 13:00:53;;;;;;;8.95;6.00;;;;;;;;;;5072554;28;20074;-72
2021/08/26 13:03:19;;;;;;;9.07;4.90;;;;;;;;;;5072976;28;20107;-72
2021/08/26 13:05:49;;;;;;;6.70;4.72;;;;;;;;;;5072794;28;20418;-73
2021/08/26 13:08:15;;;;;;;10.52;5.70;;;;;;;;;;5072443;28;20068;-73
2021/08/26 13:10:42;;;;;;;8.60;6.28;;;;;;;;;;5072658;28;20025;-72
2021/08/26 13:13:13;;;;;;;8.35;5.63;;;;;;;;;;5072695;28;20044;-72
2021/08/26 13:15:39;;;;;;;11.70;5.85;;;;;;;;;;5072666;28;20025;-73
2021/08/26 13:18:06;;;;;;;7.13;5.47;;;;;;;;;;5072613;28;20150;-73
2021/08/26 13:20:34;;;;;;;8.35;5.40;;;;;;;;;;5072871;28;20017;-73
2021/08/26 13:23:00;;;;;;;8.57;5.60;;;;;;;;;;5072597;28;20024;-72
2021/08/26 13:25:26;;;;;;;8.10;5.28;;;;;;;;;;5072429;28;20025;-75
2021/08/26 13:27:53;;;;;;;10.23;5.65;;;;;;;;;;5072549;28;20104;-74
2021/08/26 13:30:19;;;;;;;9.88;5.60;;;;;;;;;;5072823;28;20025;-73
2021/08/26 13:32:45;;;;;;;8.85;5.82;;;;;;;;;;5072774;28;20476;-73
2021/08/26 13:35:11;;;;;;;8.15;6.03;;;;;;;;;;5072565;28;20034;-73
2021/08/26 13:37:38;;;;;;;9.07;5.60;;;;;;;;;;5072493;28;20042;-73
2021/08/26 13:40:05;;;;;;;10.50;5.72;;;;;;;;;;5073168;28;20084;-73
2021/08/26 13:42:31;;;;;;;6.10;5.18;;;;;;;;;;5073798;28;20028;-74
2021/08/26 13:44:58;;;;;;;15.57;6.40;;;;;;;;;;5072293;28;20506;-74
2021/08/26 13:47:24;;;;;;;8.30;5.72;;;;;;;;;;5072274;28;20020;-73
2021/08/26 13:49:50;;;;;;;6.78;5.53;;;;;;;;;;5072359;28;20028;-76
2021/08/26 13:52:16;;;;;;;6.00;5.38;;;;;;;;;;5072787;28;20017;-72
2021/08/26 13:54:42;;;;;;;6.88;5.43;;;;;;;;;;5072452;28;20032;-74
2021/08/26 13:57:08;;;;;;;8.15;6.03;;;;;;;;;;5072820;28;20024;-73
2021/08/26 13:59:34;;;;;;;8.20;5.97;;;;;;;;;;5075755;28;20036;-73
2021/08/26 14:02:00;;;;;;;8.25;5.75;;;;;;;;;;5076359;28;20035;-74
2021/08/26 14:04:26;;;;;;;7.30;5.57;;;;;;;;;;5076349;28;20042;-72
2021/08/26 14:06:52;;;;;;;5.65;5.00;;;;;;;;;;5075775;28;20036;-74
2021/08/26 14:09:19;;;;;;;7.40;5.75;;;;;;;;;;5076302;28;20028;-74
2021/08/26 14:11:45;;;;;;;7.45;5.10;;;;;;;;;;5076307;28;20017;-73
2021/08/26 14:14:12;;;;;;;9.35;5.70;;;;;;;;;;5076069;28;20439;-74
2021/08/26 14:16:38;;;;;;;6.95;4.75;;;;;;;;;;5075780;28;20024;-74
2021/08/26 14:19:08;;;;;;;9.73;4.82;;;;;;;;;;5075837;28;20503;-73
2021/08/26 14:21:34;;;;;;;8.38;5.55;;;;;;;;;;5076238;28;20025;-73
2021/08/26 14:24:00;;;;;;;8.65;5.63;;;;;;;;;;5075846;28;20047;-74
2021/08/26 14:26:27;;;;;;;7.45;5.57;;;;;;;;;;5075701;28;20021;-74
2021/08/26 14:28:53;;;;;;;7.85;5.10;;;;;;;;;;5075409;28;20020;-74
2021/08/26 14:31:19;;;;;;;8.05;5.75;;;;;;;;;;5075472;28;20403;-73
2021/08/26 14:33:45;;;;;;;7.00;5.20;;;;;;;;;;5075528;28;20099;-74
2021/08/26 14:36:11;;;;;;;9.52;5.65;;;;;;;;;;5076014;28;20036;-74
2021/08/26 14:38:37;;;;;;;7.43;5.07;;;;;;;;;;5076001;28;20044;-73